sensor_id;sensor_type;location;lat;lon;timestamp;P1;durP1;ratioP1;P2;durP2;ratioP2
19225;SDS011;9747;48.536;12.522;2023-09-18T00:01:06;2.97;;;2.78;;
19225;SDS011;9747;48.536;12.522;2023-09-18T00:03:33;2.83;;;2.72;;
19225;SDS011;9747;48.536;12.522;2023-09-18T00:06:01;2.85;;;2.65;;
19225;SDS011;9747;48.536;12.522;2023-09-18T00:08:28;2.92;;;2.83;;
19225;SDS011;9747;48.536;12.522;2023-09-18T00:10:57;3.28;;;3.08;;
19225;SDS011;9747;48.536;12.522;2023-09-18T00:13:25;2.90;;;2.70;;
19225;SDS011;9747;48.536;12.522;2023-09-18T00:15:54;2.85;;;2.70;;
19225;SDS011;9747;48.536;12.522;2023-09-18T00:18:26;3.28;;;3.08;;
19225;SDS011;9747;48.536;12.522;2023-09-18T00:20:53;3.00;;;2.80;;
19225;SDS011;9747;48.536;12.522;2023-09-18T00:23:21;3.05;;;2.85;;
19225;SDS011;9747;48.536;12.522;2023-09-18T00:25:48;2.58;;;2.47;;
19225;SDS011;9747;48.536;12.522;2023-09-18T00:28:16;2.88;;;2.70;;
19225;SDS011;9747;48.536;12.522;2023-09-18T00:30:46;3.05;;;2.90;;
19225;SDS011;9747;48.536;12.522;2023-09-18T00:33:15;2.80;;;2.60;;
19225;SDS011;9747;48.536;12.522;2023-09-18T00:35:49;3.00;;;2.80;;
19225;SDS011;9747;48.536;12.522;2023-09-18T00:38:17;2.90;;;2.80;;
19225;SDS011;9747;48.536;12.522;2023-09-18T00:40:45;2.85;;;2.65;;
19225;SDS011;9747;48.536;12.522;2023-09-18T00:43:12;2.67;;;2.58;;
19225;SDS011;9747;48.536;12.522;2023-09-18T00:45:41;2.67;;;2.58;;
19225;SDS011;9747;48.536;12.522;2023-09-18T00:48:10;3.00;;;2.80;;
19225;SDS011;9747;48.536;12.522;2023-09-18T00:50:38;2.63;;;2.53;;
19225;SDS011;9747;48.536;12.522;2023-09-18T00:53:08;3.03;;;2.80;;
19225;SDS011;9747;48.536;12.522;2023-09-18T00:55:36;2.88;;;2.67;;
19225;SDS011;9747;48.536;12.522;2023-09-18T00:58:05;2.80;;;2.70;;
19225;SDS011;9747;48.536;12.522;2023-09-18T01:00:33;2.97;;;2.78;;
19225;SDS011;9747;48.536;12.522;2023-09-18T01:03:00;3.20;;;3.00;;
19225;SDS011;9747;48.536;12.522;2023-09-18T01:05:29;2.80;;;2.70;;
19225;SDS011;9747;48.536;12.522;2023-09-18T01:07:58;2.80;;;2.70;;
19225;SDS011;9747;48.536;12.522;2023-09-18T01:10:30;3.13;;;2.97;;
19225;SDS011;9747;48.536;12.522;2023-09-18T01:13:04;2.95;;;2.85;;
19225;SDS011;9747;48.536;12.522;2023-09-18T01:15:39;2.75;;;2.63;;
19225;SDS011;9747;48.536;12.522;2023-09-18T01:18:10;2.78;;;2.67;;
19225;SDS011;9747;48.536;12.522;2023-09-18T01:20:38;2.70;;;2.60;;
19225;SDS011;9747;48.536;12.522;2023-09-18T01:23:07;2.80;;;2.70;;
19225;SDS011;9747;48.536;12.522;2023-09-18T01:25:36;3.25;;;2.95;;
19225;SDS011;9747;48.536;12.522;2023-09-18T01:28:04;3.00;;;2.80;;
19225;SDS011;9747;48.536;12.522;2023-09-18T01:30:31;2.55;;;2.45;;
19225;SDS011;9747;48.536;12.522;2023-09-18T01:32:59;2.78;;;2.67;;
19225;SDS011;9747;48.536;12.522;2023-09-18T01:35:29;2.92;;;2.72;;
19225;SDS011;9747;48.536;12.522;2023-09-18T01:37:56;2.50;;;2.40;;
19225;SDS011;9747;48.536;12.522;2023-09-18T01:40:27;2.58;;;2.47;;
19225;SDS011;9747;48.536;12.522;2023-09-18T01:42:54;2.75;;;2.60;;
19225;SDS011;9747;48.536;12.522;2023-09-18T01:45:23;3.13;;;2.92;;
19225;SDS011;9747;48.536;12.522;2023-09-18T01:47:50;2.88;;;2.67;;
19225;SDS011;9747;48.536;12.522;2023-09-18T01:50:18;2.90;;;2.70;;
19225;SDS011;9747;48.536;12.522;2023-09-18T01:52:46;2.75;;;2.65;;
19225;SDS011;9747;48.536;12.522;2023-09-18T01:55:14;2.80;;;2.60;;
19225;SDS011;9747;48.536;12.522;2023-09-18T01:57:42;3.00;;;2.80;;
19225;SDS011;9747;48.536;12.522;2023-09-18T02:00:10;2.70;;;2.60;;
19225;SDS011;9747;48.536;12.522;2023-09-18T02:02:40;2.90;;;2.70;;
19225;SDS011;9747;48.536;12.522;2023-09-18T02:05:07;2.90;;;2.70;;
19225;SDS011;9747;48.536;12.522;2023-09-18T02:07:35;2.97;;;2.78;;
19225;SDS011;9747;48.536;12.522;2023-09-18T02:10:02;3.03;;;2.83;;
19225;SDS011;9747;48.536;12.522;2023-09-18T02:12:31;2.80;;;2.60;;
19225;SDS011;9747;48.536;12.522;2023-09-18T02:15:02;2.92;;;2.75;;
19225;SDS011;9747;48.536;12.522;2023-09-18T02:17:32;2.92;;;2.72;;
19225;SDS011;9747;48.536;12.522;2023-09-18T02:19:59;2.85;;;2.75;;
19225;SDS011;9747;48.536;12.522;2023-09-18T02:22:31;2.85;;;2.75;;
19225;SDS011;9747;48.536;12.522;2023-09-18T02:24:58;2.83;;;2.72;;
19225;SDS011;9747;48.536;12.522;2023-09-18T02:27:26;2.97;;;2.80;;
19225;SDS011;9747;48.536;12.522;2023-09-18T02:29:54;3.15;;;2.95;;
19225;SDS011;9747;48.536;12.522;2023-09-18T02:32:23;3.00;;;2.80;;
19225;SDS011;9747;48.536;12.522;2023-09-18T02:34:50;2.85;;;2.75;;
19225;SDS011;9747;48.536;12.522;2023-09-18T02:37:17;2.80;;;2.70;;
19225;SDS011;9747;48.536;12.522;2023-09-18T02:39:45;2.75;;;2.65;;
19225;SDS011;9747;48.536;12.522;2023-09-18T02:42:14;2.80;;;2.70;;
19225;SDS011;9747;48.536;12.522;2023-09-18T02:44:42;3.17;;;2.97;;
19225;SDS011;9747;48.536;12.522;2023-09-18T02:47:10;3.08;;;2.88;;
19225;SDS011;9747;48.536;12.522;2023-09-18T02:49:38;3.10;;;2.90;;
19225;SDS011;9747;48.536;12.522;2023-09-18T02:52:06;3.45;;;3.15;;
19225;SDS011;9747;48.536;12.522;2023-09-18T02:54:33;3.35;;;2.97;;
19225;SDS011;9747;48.536;12.522;2023-09-18T02:57:01;2.78;;;2.67;;
19225;SDS011;9747;48.536;12.522;2023-09-18T02:59:28;2.83;;;2.63;;
19225;SDS011;9747;48.536;12.522;2023-09-18T03:01:56;2.80;;;2.70;;
19225;SDS011;9747;48.536;12.522;2023-09-18T03:04:23;2.97;;;2.78;;
19225;SDS011;9747;48.536;12.522;2023-09-18T03:06:52;3.05;;;2.85;;
19225;SDS011;9747;48.536;12.522;2023-09-18T03:09:20;3.00;;;2.80;;
19225;SDS011;9747;48.536;12.522;2023-09-18T03:11:47;3.28;;;3.08;;
19225;SDS011;9747;48.536;12.522;2023-09-18T03:14:15;3.10;;;3.00;;
19225;SDS011;9747;48.536;12.522;2023-09-18T03:16:42;2.88;;;2.70;;
19225;SDS011;9747;48.536;12.522;2023-09-18T03:19:10;2.72;;;2.63;;
19225;SDS011;9747;48.536;12.522;2023-09-18T03:21:38;2.88;;;2.78;;
19225;SDS011;9747;48.536;12.522;2023-09-18T03:24:07;3.05;;;2.85;;
19225;SDS011;9747;48.536;12.522;2023-09-18T03:26:35;3.30;;;3.10;;
19225;SDS011;9747;48.536;12.522;2023-09-18T03:29:03;3.20;;;2.88;;
19225;SDS011;9747;48.536;12.522;2023-09-18T03:31:30;2.70;;;2.60;;
19225;SDS011;9747;48.536;12.522;2023-09-18T03:33:58;3.03;;;2.83;;
19225;SDS011;9747;48.536;12.522;2023-09-18T03:36:26;2.80;;;2.70;;
19225;SDS011;9747;48.536;12.522;2023-09-18T03:38:54;3.05;;;2.80;;
19225;SDS011;9747;48.536;12.522;2023-09-18T03:41:23;3.60;;;3.40;;
19225;SDS011;9747;48.536;12.522;2023-09-18T03:43:50;4.53;;;2.90;;
19225;SDS011;9747;48.536;12.522;2023-09-18T03:46:18;3.20;;;3.00;;
19225;SDS011;9747;48.536;12.522;2023-09-18T03:48:48;3.35;;;3.03;;
19225;SDS011;9747;48.536;12.522;2023-09-18T03:51:16;3.03;;;2.83;;
19225;SDS011;9747;48.536;12.522;2023-09-18T03:53:44;3.40;;;3.10;;
19225;SDS011;9747;48.536;12.522;2023-09-18T03:56:13;2.63;;;2.50;;
19225;SDS011;9747;48.536;12.522;2023-09-18T03:58:42;3.05;;;2.85;;
19225;SDS011;9747;48.536;12.522;2023-09-18T04:01:11;3.28;;;3.00;;
19225;SDS011;9747;48.536;12.522;2023-09-18T04:03:39;5.00;;;3.65;;
19225;SDS011;9747;48.536;12.522;2023-09-18T04:06:07;9.60;;;4.80;;
19225;SDS011;9747;48.536;12.522;2023-09-18T04:08:34;5.95;;;3.55;;
19225;SDS011;9747;48.536;12.522;2023-09-18T04:11:01;4.78;;;3.60;;
19225;SDS011;9747;48.536;12.522;2023-09-18T04:13:29;7.32;;;4.15;;
19225;SDS011;9747;48.536;12.522;2023-09-18T04:16:00;6.40;;;3.95;;
19225;SDS011;9747;48.536;12.522;2023-09-18T04:18:29;6.88;;;4.15;;
19225;SDS011;9747;48.536;12.522;2023-09-18T04:20:56;7.90;;;4.30;;
19225;SDS011;9747;48.536;12.522;2023-09-18T04:23:24;8.90;;;4.20;;
19225;SDS011;9747;48.536;12.522;2023-09-18T04:25:54;6.53;;;3.92;;
19225;SDS011;9747;48.536;12.522;2023-09-18T04:28:23;4.30;;;3.70;;
19225;SDS011;9747;48.536;12.522;2023-09-18T04:30:50;11.93;;;4.45;;
19225;SDS011;9747;48.536;12.522;2023-09-18T04:33:21;7.93;;;4.80;;
19225;SDS011;9747;48.536;12.522;2023-09-18T04:35:49;10.40;;;4.30;;
19225;SDS011;9747;48.536;12.522;2023-09-18T04:38:17;7.90;;;4.78;;
19225;SDS011;9747;48.536;12.522;2023-09-18T04:40:44;8.57;;;4.60;;
19225;SDS011;9747;48.536;12.522;2023-09-18T04:43:12;9.70;;;4.97;;
19225;SDS011;9747;48.536;12.522;2023-09-18T04:45:40;6.10;;;4.63;;
19225;SDS011;9747;48.536;12.522;2023-09-18T04:48:08;9.43;;;5.10;;
19225;SDS011;9747;48.536;12.522;2023-09-18T04:50:37;9.45;;;4.90;;
19225;SDS011;9747;48.536;12.522;2023-09-18T04:53:06;6.90;;;4.32;;
19225;SDS011;9747;48.536;12.522;2023-09-18T04:55:34;9.02;;;4.95;;
19225;SDS011;9747;48.536;12.522;2023-09-18T04:58:03;8.52;;;4.57;;
19225;SDS011;9747;48.536;12.522;2023-09-18T05:00:31;11.40;;;4.95;;
19225;SDS011;9747;48.536;12.522;2023-09-18T05:02:59;11.90;;;4.70;;
19225;SDS011;9747;48.536;12.522;2023-09-18T05:05:28;9.10;;;5.55;;
19225;SDS011;9747;48.536;12.522;2023-09-18T05:07:57;10.50;;;5.03;;
19225;SDS011;9747;48.536;12.522;2023-09-18T05:10:25;12.30;;;5.13;;
19225;SDS011;9747;48.536;12.522;2023-09-18T05:12:52;10.20;;;5.20;;
19225;SDS011;9747;48.536;12.522;2023-09-18T05:15:23;11.57;;;5.57;;
19225;SDS011;9747;48.536;12.522;2023-09-18T05:17:52;9.82;;;4.55;;
19225;SDS011;9747;48.536;12.522;2023-09-18T05:20:22;7.15;;;5.18;;
19225;SDS011;9747;48.536;12.522;2023-09-18T05:22:51;10.02;;;4.88;;
19225;SDS011;9747;48.536;12.522;2023-09-18T05:25:20;6.90;;;4.68;;
19225;SDS011;9747;48.536;12.522;2023-09-18T05:27:50;9.05;;;5.05;;
19225;SDS011;9747;48.536;12.522;2023-09-18T05:30:21;11.85;;;5.05;;
19225;SDS011;9747;48.536;12.522;2023-09-18T05:32:53;8.13;;;4.97;;
19225;SDS011;9747;48.536;12.522;2023-09-18T05:35:21;8.60;;;5.45;;
19225;SDS011;9747;48.536;12.522;2023-09-18T05:37:49;13.40;;;5.25;;
19225;SDS011;9747;48.536;12.522;2023-09-18T05:40:17;10.98;;;5.10;;
19225;SDS011;9747;48.536;12.522;2023-09-18T05:42:46;8.40;;;5.05;;
19225;SDS011;9747;48.536;12.522;2023-09-18T05:45:13;7.63;;;5.03;;
19225;SDS011;9747;48.536;12.522;2023-09-18T05:47:41;10.25;;;4.90;;
19225;SDS011;9747;48.536;12.522;2023-09-18T05:50:10;8.93;;;4.78;;
19225;SDS011;9747;48.536;12.522;2023-09-18T05:52:40;6.88;;;4.60;;
19225;SDS011;9747;48.536;12.522;2023-09-18T05:55:08;8.68;;;5.15;;
19225;SDS011;9747;48.536;12.522;2023-09-18T05:57:35;6.35;;;4.35;;
19225;SDS011;9747;48.536;12.522;2023-09-18T06:00:05;8.68;;;4.88;;
19225;SDS011;9747;48.536;12.522;2023-09-18T06:02:37;6.47;;;4.35;;
19225;SDS011;9747;48.536;12.522;2023-09-18T06:05:05;8.38;;;4.78;;
19225;SDS011;9747;48.536;12.522;2023-09-18T06:07:36;7.45;;;4.53;;
19225;SDS011;9747;48.536;12.522;2023-09-18T06:10:04;7.03;;;4.40;;
19225;SDS011;9747;48.536;12.522;2023-09-18T06:12:32;7.10;;;4.50;;
19225;SDS011;9747;48.536;12.522;2023-09-18T06:15:00;7.68;;;4.28;;
19225;SDS011;9747;48.536;12.522;2023-09-18T06:17:30;7.57;;;4.85;;
19225;SDS011;9747;48.536;12.522;2023-09-18T06:19:58;7.47;;;4.35;;
19225;SDS011;9747;48.536;12.522;2023-09-18T06:22:26;5.68;;;4.68;;
19225;SDS011;9747;48.536;12.522;2023-09-18T06:24:53;6.25;;;4.25;;
19225;SDS011;9747;48.536;12.522;2023-09-18T06:27:21;6.82;;;4.45;;
19225;SDS011;9747;48.536;12.522;2023-09-18T06:29:48;6.25;;;4.28;;
19225;SDS011;9747;48.536;12.522;2023-09-18T06:32:16;7.90;;;4.63;;
19225;SDS011;9747;48.536;12.522;2023-09-18T06:34:46;5.70;;;4.15;;
19225;SDS011;9747;48.536;12.522;2023-09-18T06:37:13;4.82;;;4.10;;
19225;SDS011;9747;48.536;12.522;2023-09-18T06:39:41;6.63;;;4.60;;
19225;SDS011;9747;48.536;12.522;2023-09-18T06:42:08;7.82;;;4.28;;
19225;SDS011;9747;48.536;12.522;2023-09-18T06:44:35;5.78;;;4.10;;
19225;SDS011;9747;48.536;12.522;2023-09-18T06:47:03;5.63;;;3.90;;
19225;SDS011;9747;48.536;12.522;2023-09-18T06:49:31;5.68;;;4.00;;
19225;SDS011;9747;48.536;12.522;2023-09-18T06:52:00;5.25;;;3.95;;
19225;SDS011;9747;48.536;12.522;2023-09-18T06:54:28;5.88;;;4.35;;
19225;SDS011;9747;48.536;12.522;2023-09-18T06:56:55;6.25;;;4.20;;
19225;SDS011;9747;48.536;12.522;2023-09-18T06:59:23;6.22;;;4.10;;
19225;SDS011;9747;48.536;12.522;2023-09-18T07:01:50;5.25;;;4.00;;
19225;SDS011;9747;48.536;12.522;2023-09-18T07:04:18;6.30;;;4.25;;
19225;SDS011;9747;48.536;12.522;2023-09-18T07:06:45;5.55;;;4.05;;
19225;SDS011;9747;48.536;12.522;2023-09-18T07:09:14;5.43;;;4.40;;
19225;SDS011;9747;48.536;12.522;2023-09-18T07:11:43;4.35;;;3.72;;
19225;SDS011;9747;48.536;12.522;2023-09-18T07:14:10;9.40;;;4.50;;
19225;SDS011;9747;48.536;12.522;2023-09-18T07:16:38;7.07;;;4.15;;
19225;SDS011;9747;48.536;12.522;2023-09-18T07:19:05;5.95;;;3.90;;
19225;SDS011;9747;48.536;12.522;2023-09-18T07:21:36;6.25;;;4.00;;
19225;SDS011;9747;48.536;12.522;2023-09-18T07:24:05;8.65;;;4.38;;
19225;SDS011;9747;48.536;12.522;2023-09-18T07:26:36;7.32;;;3.83;;
19225;SDS011;9747;48.536;12.522;2023-09-18T07:29:04;6.88;;;3.63;;
19225;SDS011;9747;48.536;12.522;2023-09-18T07:31:31;7.15;;;3.80;;
19225;SDS011;9747;48.536;12.522;2023-09-18T07:33:59;8.30;;;4.05;;
19225;SDS011;9747;48.536;12.522;2023-09-18T07:36:26;6.13;;;4.07;;
19225;SDS011;9747;48.536;12.522;2023-09-18T07:38:53;5.57;;;3.97;;
19225;SDS011;9747;48.536;12.522;2023-09-18T07:41:21;6.70;;;4.07;;
19225;SDS011;9747;48.536;12.522;2023-09-18T07:43:51;6.00;;;3.95;;
19225;SDS011;9747;48.536;12.522;2023-09-18T07:46:19;5.45;;;3.50;;
19225;SDS011;9747;48.536;12.522;2023-09-18T07:48:46;4.50;;;3.22;;
19225;SDS011;9747;48.536;12.522;2023-09-18T07:51:13;4.88;;;3.60;;
19225;SDS011;9747;48.536;12.522;2023-09-18T07:53:41;5.70;;;3.78;;
19225;SDS011;9747;48.536;12.522;2023-09-18T07:56:09;3.88;;;3.47;;
19225;SDS011;9747;48.536;12.522;2023-09-18T07:58:37;4.63;;;3.90;;
19225;SDS011;9747;48.536;12.522;2023-09-18T08:01:06;4.32;;;3.53;;
19225;SDS011;9747;48.536;12.522;2023-09-18T08:03:35;5.15;;;3.80;;
19225;SDS011;9747;48.536;12.522;2023-09-18T08:06:02;4.72;;;3.55;;
19225;SDS011;9747;48.536;12.522;2023-09-18T08:08:31;4.70;;;3.40;;
19225;SDS011;9747;48.536;12.522;2023-09-18T08:11:00;4.45;;;3.38;;
19225;SDS011;9747;48.536;12.522;2023-09-18T08:13:33;4.10;;;3.42;;
19225;SDS011;9747;48.536;12.522;2023-09-18T08:16:01;3.63;;;3.33;;
19225;SDS011;9747;48.536;12.522;2023-09-18T08:18:30;4.78;;;3.50;;
19225;SDS011;9747;48.536;12.522;2023-09-18T08:20:58;4.57;;;3.33;;
19225;SDS011;9747;48.536;12.522;2023-09-18T08:23:25;4.35;;;3.53;;
19225;SDS011;9747;48.536;12.522;2023-09-18T08:25:52;3.33;;;3.00;;
19225;SDS011;9747;48.536;12.522;2023-09-18T08:28:22;4.22;;;3.60;;
19225;SDS011;9747;48.536;12.522;2023-09-18T08:30:50;4.70;;;3.50;;
19225;SDS011;9747;48.536;12.522;2023-09-18T08:33:17;3.72;;;3.30;;
19225;SDS011;9747;48.536;12.522;2023-09-18T08:35:47;4.20;;;3.15;;
19225;SDS011;9747;48.536;12.522;2023-09-18T08:38:15;3.38;;;3.08;;
19225;SDS011;9747;48.536;12.522;2023-09-18T08:40:42;3.95;;;3.10;;
19225;SDS011;9747;48.536;12.522;2023-09-18T08:43:10;3.47;;;3.10;;
19225;SDS011;9747;48.536;12.522;2023-09-18T08:45:40;4.00;;;3.08;;
19225;SDS011;9747;48.536;12.522;2023-09-18T08:48:13;4.18;;;3.00;;
19225;SDS011;9747;48.536;12.522;2023-09-18T08:50:41;4.18;;;3.22;;
19225;SDS011;9747;48.536;12.522;2023-09-18T08:53:10;4.93;;;3.38;;
19225;SDS011;9747;48.536;12.522;2023-09-18T08:55:38;3.35;;;3.05;;
19225;SDS011;9747;48.536;12.522;2023-09-18T08:58:06;4.03;;;3.35;;
19225;SDS011;9747;48.536;12.522;2023-09-18T09:00:35;3.63;;;3.33;;
19225;SDS011;9747;48.536;12.522;2023-09-18T09:03:03;3.40;;;3.10;;
19225;SDS011;9747;48.536;12.522;2023-09-18T09:05:31;3.75;;;3.17;;
19225;SDS011;9747;48.536;12.522;2023-09-18T09:07:59;3.10;;;2.90;;
19225;SDS011;9747;48.536;12.522;2023-09-18T09:10:28;4.18;;;3.00;;
19225;SDS011;9747;48.536;12.522;2023-09-18T09:12:56;3.83;;;3.22;;
19225;SDS011;9747;48.536;12.522;2023-09-18T09:15:24;3.97;;;3.20;;
19225;SDS011;9747;48.536;12.522;2023-09-18T09:18:02;3.53;;;3.20;;
19225;SDS011;9747;48.536;12.522;2023-09-18T09:20:31;4.35;;;3.50;;
19225;SDS011;9747;48.536;12.522;2023-09-18T09:23:00;3.80;;;3.20;;
19225;SDS011;9747;48.536;12.522;2023-09-18T09:25:30;3.50;;;3.20;;
19225;SDS011;9747;48.536;12.522;2023-09-18T09:27:59;3.80;;;3.10;;
19225;SDS011;9747;48.536;12.522;2023-09-18T09:30:29;4.25;;;3.20;;
19225;SDS011;9747;48.536;12.522;2023-09-18T09:32:57;3.67;;;3.28;;
19225;SDS011;9747;48.536;12.522;2023-09-18T09:35:28;3.42;;;3.13;;
19225;SDS011;9747;48.536;12.522;2023-09-18T09:37:59;3.70;;;2.92;;
19225;SDS011;9747;48.536;12.522;2023-09-18T09:40:30;3.42;;;3.13;;
19225;SDS011;9747;48.536;12.522;2023-09-18T09:42:59;3.60;;;3.30;;
19225;SDS011;9747;48.536;12.522;2023-09-18T09:45:27;4.80;;;2.97;;
19225;SDS011;9747;48.536;12.522;2023-09-18T09:47:56;3.88;;;3.28;;
19225;SDS011;9747;48.536;12.522;2023-09-18T09:50:24;3.42;;;3.13;;
19225;SDS011;9747;48.536;12.522;2023-09-18T09:52:52;3.50;;;3.30;;
19225;SDS011;9747;48.536;12.522;2023-09-18T09:55:22;6.88;;;3.60;;
19225;SDS011;9747;48.536;12.522;2023-09-18T09:57:53;5.50;;;3.88;;
19225;SDS011;9747;48.536;12.522;2023-09-18T10:00:25;3.25;;;3.00;;
19225;SDS011;9747;48.536;12.522;2023-09-18T10:02:57;4.45;;;3.90;;
19225;SDS011;9747;48.536;12.522;2023-09-18T10:05:29;4.35;;;3.58;;
19225;SDS011;9747;48.536;12.522;2023-09-18T10:08:00;3.60;;;3.30;;
19225;SDS011;9747;48.536;12.522;2023-09-18T10:10:33;3.95;;;3.58;;
19225;SDS011;9747;48.536;12.522;2023-09-18T10:13:09;4.65;;;3.75;;
19225;SDS011;9747;48.536;12.522;2023-09-18T10:15:39;4.25;;;3.83;;
19225;SDS011;9747;48.536;12.522;2023-09-18T10:18:10;4.25;;;3.28;;
19225;SDS011;9747;48.536;12.522;2023-09-18T10:20:48;4.47;;;3.42;;
19225;SDS011;9747;48.536;12.522;2023-09-18T10:23:23;4.60;;;3.47;;
19225;SDS011;9747;48.536;12.522;2023-09-18T10:26:01;3.97;;;3.63;;
19225;SDS011;9747;48.536;12.522;2023-09-18T10:28:30;3.70;;;3.40;;
19225;SDS011;9747;48.536;12.522;2023-09-18T10:30:59;4.18;;;3.50;;
19225;SDS011;9747;48.536;12.522;2023-09-18T10:33:31;4.13;;;3.75;;
19225;SDS011;9747;48.536;12.522;2023-09-18T10:35:59;3.72;;;3.42;;
19225;SDS011;9747;48.536;12.522;2023-09-18T10:38:29;6.10;;;4.28;;
19225;SDS011;9747;48.536;12.522;2023-09-18T10:40:57;4.38;;;3.72;;
19225;SDS011;9747;48.536;12.522;2023-09-18T10:43:25;5.50;;;3.83;;
19225;SDS011;9747;48.536;12.522;2023-09-18T10:45:53;4.00;;;3.60;;
19225;SDS011;9747;48.536;12.522;2023-09-18T10:48:21;5.10;;;3.42;;
19225;SDS011;9747;48.536;12.522;2023-09-18T10:50:49;5.00;;;3.80;;
19225;SDS011;9747;48.536;12.522;2023-09-18T10:53:18;5.35;;;3.85;;
19225;SDS011;9747;48.536;12.522;2023-09-18T10:55:46;5.50;;;4.20;;
19225;SDS011;9747;48.536;12.522;2023-09-18T10:58:22;8.15;;;4.10;;
19225;SDS011;9747;48.536;12.522;2023-09-18T11:00:51;7.15;;;3.70;;
19225;SDS011;9747;48.536;12.522;2023-09-18T11:03:23;7.45;;;4.00;;
19225;SDS011;9747;48.536;12.522;2023-09-18T11:06:01;5.45;;;4.07;;
19225;SDS011;9747;48.536;12.522;2023-09-18T11:08:32;5.88;;;4.30;;
19225;SDS011;9747;48.536;12.522;2023-09-18T11:11:02;9.13;;;4.57;;
19225;SDS011;9747;48.536;12.522;2023-09-18T11:13:35;8.65;;;4.18;;
19225;SDS011;9747;48.536;12.522;2023-09-18T11:19:15;7.97;;;4.75;;
19225;SDS011;9747;48.536;12.522;2023-09-18T11:21:44;6.22;;;3.92;;
19225;SDS011;9747;48.536;12.522;2023-09-18T11:24:16;5.32;;;4.38;;
19225;SDS011;9747;48.536;12.522;2023-09-18T11:26:46;5.38;;;4.10;;
19225;SDS011;9747;48.536;12.522;2023-09-18T11:29:16;5.88;;;4.00;;
19225;SDS011;9747;48.536;12.522;2023-09-18T11:31:50;5.65;;;4.40;;
19225;SDS011;9747;48.536;12.522;2023-09-18T11:34:20;6.68;;;4.38;;
19225;SDS011;9747;48.536;12.522;2023-09-18T11:36:49;6.63;;;4.28;;
19225;SDS011;9747;48.536;12.522;2023-09-18T11:39:35;5.30;;;4.40;;
19225;SDS011;9747;48.536;12.522;2023-09-18T11:42:06;6.45;;;4.40;;
19225;SDS011;9747;48.536;12.522;2023-09-18T11:44:35;5.72;;;4.32;;
19225;SDS011;9747;48.536;12.522;2023-09-18T11:47:09;6.57;;;4.32;;
19225;SDS011;9747;48.536;12.522;2023-09-18T11:49:42;6.13;;;4.32;;
19225;SDS011;9747;48.536;12.522;2023-09-18T11:52:16;6.53;;;4.35;;
19225;SDS011;9747;48.536;12.522;2023-09-18T11:54:43;4.90;;;4.40;;
19225;SDS011;9747;48.536;12.522;2023-09-18T11:57:12;7.43;;;4.25;;
19225;SDS011;9747;48.536;12.522;2023-09-18T11:59:40;7.35;;;4.50;;
19225;SDS011;9747;48.536;12.522;2023-09-18T12:02:10;9.32;;;5.00;;
19225;SDS011;9747;48.536;12.522;2023-09-18T12:04:45;6.85;;;4.38;;
19225;SDS011;9747;48.536;12.522;2023-09-18T12:07:13;6.47;;;4.50;;
19225;SDS011;9747;48.536;12.522;2023-09-18T12:09:41;8.43;;;4.20;;
19225;SDS011;9747;48.536;12.522;2023-09-18T12:12:08;5.60;;;3.92;;
19225;SDS011;9747;48.536;12.522;2023-09-18T12:14:39;7.25;;;4.22;;
19225;SDS011;9747;48.536;12.522;2023-09-18T12:17:08;9.68;;;4.20;;
19225;SDS011;9747;48.536;12.522;2023-09-18T12:19:47;8.57;;;3.85;;
19225;SDS011;9747;48.536;12.522;2023-09-18T12:22:22;7.30;;;3.70;;
19225;SDS011;9747;48.536;12.522;2023-09-18T12:24:51;7.00;;;3.60;;
19225;SDS011;9747;48.536;12.522;2023-09-18T12:27:19;7.10;;;3.60;;
19225;SDS011;9747;48.536;12.522;2023-09-18T12:29:52;6.50;;;3.45;;
19225;SDS011;9747;48.536;12.522;2023-09-18T12:32:20;9.70;;;4.05;;
19225;SDS011;9747;48.536;12.522;2023-09-18T12:34:48;10.32;;;4.30;;
19225;SDS011;9747;48.536;12.522;2023-09-18T12:37:16;7.45;;;3.40;;
19225;SDS011;9747;48.536;12.522;2023-09-18T12:39:44;6.55;;;3.75;;
19225;SDS011;9747;48.536;12.522;2023-09-18T12:42:11;6.13;;;3.80;;
19225;SDS011;9747;48.536;12.522;2023-09-18T12:44:39;8.25;;;4.45;;
19225;SDS011;9747;48.536;12.522;2023-09-18T12:47:06;8.13;;;4.00;;
19225;SDS011;9747;48.536;12.522;2023-09-18T12:49:35;7.63;;;3.90;;
19225;SDS011;9747;48.536;12.522;2023-09-18T12:52:05;6.38;;;4.10;;
19225;SDS011;9747;48.536;12.522;2023-09-18T12:54:36;8.60;;;4.00;;
19225;SDS011;9747;48.536;12.522;2023-09-18T12:57:05;6.85;;;3.75;;
19225;SDS011;9747;48.536;12.522;2023-09-18T12:59:35;5.82;;;3.80;;
19225;SDS011;9747;48.536;12.522;2023-09-18T13:02:04;5.88;;;3.80;;
19225;SDS011;9747;48.536;12.522;2023-09-18T13:04:32;8.05;;;4.05;;
19225;SDS011;9747;48.536;12.522;2023-09-18T13:07:02;5.82;;;3.63;;
19225;SDS011;9747;48.536;12.522;2023-09-18T13:09:32;5.38;;;3.70;;
19225;SDS011;9747;48.536;12.522;2023-09-18T13:12:00;6.85;;;3.80;;
19225;SDS011;9747;48.536;12.522;2023-09-18T13:14:28;5.22;;;3.92;;
19225;SDS011;9747;48.536;12.522;2023-09-18T13:17:00;9.05;;;4.10;;
19225;SDS011;9747;48.536;12.522;2023-09-18T13:19:29;11.07;;;3.90;;
19225;SDS011;9747;48.536;12.522;2023-09-18T13:21:58;12.57;;;4.20;;
19225;SDS011;9747;48.536;12.522;2023-09-18T13:24:26;8.85;;;3.97;;
19225;SDS011;9747;48.536;12.522;2023-09-18T13:26:55;7.70;;;4.00;;
19225;SDS011;9747;48.536;12.522;2023-09-18T13:29:24;10.70;;;3.70;;
19225;SDS011;9747;48.536;12.522;2023-09-18T13:31:51;5.53;;;3.63;;
19225;SDS011;9747;48.536;12.522;2023-09-18T13:34:19;8.55;;;4.10;;
19225;SDS011;9747;48.536;12.522;2023-09-18T13:36:48;6.85;;;3.83;;
19225;SDS011;9747;48.536;12.522;2023-09-18T13:39:16;6.13;;;3.63;;
19225;SDS011;9747;48.536;12.522;2023-09-18T13:41:45;5.78;;;3.50;;
19225;SDS011;9747;48.536;12.522;2023-09-18T13:44:14;6.47;;;3.58;;
19225;SDS011;9747;48.536;12.522;2023-09-18T13:46:41;4.82;;;3.75;;
19225;SDS011;9747;48.536;12.522;2023-09-18T13:49:09;28.92;;;4.22;;
19225;SDS011;9747;48.536;12.522;2023-09-18T13:51:39;14.52;;;3.83;;
19225;SDS011;9747;48.536;12.522;2023-09-18T13:54:07;8.02;;;3.22;;
19225;SDS011;9747;48.536;12.522;2023-09-18T13:56:36;9.88;;;3.22;;
19225;SDS011;9747;48.536;12.522;2023-09-18T13:59:04;7.57;;;2.97;;
19225;SDS011;9747;48.536;12.522;2023-09-18T14:01:32;6.90;;;3.15;;
19225;SDS011;9747;48.536;12.522;2023-09-18T14:03:59;8.13;;;3.38;;
19225;SDS011;9747;48.536;12.522;2023-09-18T14:06:27;7.97;;;3.38;;
19225;SDS011;9747;48.536;12.522;2023-09-18T14:08:54;6.55;;;3.35;;
19225;SDS011;9747;48.536;12.522;2023-09-18T14:11:23;6.63;;;2.83;;
19225;SDS011;9747;48.536;12.522;2023-09-18T14:13:53;6.55;;;2.67;;
19225;SDS011;9747;48.536;12.522;2023-09-18T14:16:30;5.00;;;2.47;;
19225;SDS011;9747;48.536;12.522;2023-09-18T14:19:01;7.75;;;3.00;;
19225;SDS011;9747;48.536;12.522;2023-09-18T14:21:30;3.78;;;2.22;;
19225;SDS011;9747;48.536;12.522;2023-09-18T14:24:04;6.90;;;2.70;;
19225;SDS011;9747;48.536;12.522;2023-09-18T14:26:35;4.30;;;2.22;;
19225;SDS011;9747;48.536;12.522;2023-09-18T14:29:08;3.92;;;1.50;;
19225;SDS011;9747;48.536;12.522;2023-09-18T14:31:44;6.68;;;2.65;;
19225;SDS011;9747;48.536;12.522;2023-09-18T14:34:15;9.65;;;3.53;;
19225;SDS011;9747;48.536;12.522;2023-09-18T14:36:43;8.25;;;4.07;;
19225;SDS011;9747;48.536;12.522;2023-09-18T14:39:16;6.82;;;3.38;;
19225;SDS011;9747;48.536;12.522;2023-09-18T14:41:44;5.13;;;2.70;;
19225;SDS011;9747;48.536;12.522;2023-09-18T14:44:14;5.38;;;2.30;;
19225;SDS011;9747;48.536;12.522;2023-09-18T14:46:41;4.13;;;2.17;;
19225;SDS011;9747;48.536;12.522;2023-09-18T14:49:09;5.38;;;2.08;;
19225;SDS011;9747;48.536;12.522;2023-09-18T14:51:36;5.90;;;1.80;;
19225;SDS011;9747;48.536;12.522;2023-09-18T14:54:04;2.65;;;1.60;;
19225;SDS011;9747;48.536;12.522;2023-09-18T14:56:33;4.25;;;2.13;;
19225;SDS011;9747;48.536;12.522;2023-09-18T14:59:01;5.22;;;1.95;;
19225;SDS011;9747;48.536;12.522;2023-09-18T15:01:31;5.53;;;2.53;;